Pagina principale
METAR-TAF:

METAR-TAF

Aeroporti :

Aeroporto Internazionale Simón Bolívar

Caracas, Venezuela

latitudine: 10-36N, longitudine: 066-59W, altezza: 43 m

Osservazione

Il bollettino è stato emesso 43 minuti fa, alle 14:03 UTC
Vento 12 kt da est
Temperature 27°C
Umidità 74%
Pressione 1017 hPa

METAR: SVMI 261403Z AUTO 09012KT NCD 27/22 Q1017

Ora: 10:46 (14:46 UTC)

Previsione

Il bollettino è stato emesso 4 ore e 46 minuti fa, alle 10:00 UTC
Previsione valida dal 26 alle 12 UTC al 27 alle 12 UTC
Vento 15 kt da est/nord-est
Visibilità 10 km o più
Poco nuvoloso ad un'altezza di 1600 ft
Evoluzione graduale
dal 26 alle 16 UTC al 26 alle 22 UTC
Poco nuvoloso ad un'altezza di 1600 ft
Nubi sparse ad un'altezza di 8000 ft

TAF: SVMI 261000Z 2612/2712 07015KT 9999 FEW016 TX34/2618Z TN22/2708Z BECMG 2616/2622 02003T FEW016 SCT080

Osservazioni e previsioni meteorologiche di più di 4000 aeroporti (messaggi METAR e TAF).

Le stazioni disponibili sono rappresentate dai dischi gialli e rossi sulla carta.

Puntare il mouse per vedere il nome della stazione.

Clicca sopra per visualizzare le osservazioni e previsioni meteorologiche.

Per cambiare la mappa : fare clic sui pulsanti verdi con una croce nera per ingrandire, il pulsante verde con un trattino per diminuire, o sulla freccia verde per le mappe adiacenti.


METAR-TAF: